Lesley Pg — MXUG5 — position and weather

sailwx.info

Track history (hours):
 
Tides and Currents Weather Stations Pressure Air Temp Water Temp Dewpoint Dewpoint Depression Visibility Wind Speed Wind Dir Waves Ship Positions

Lesley Pg

Last reported at 2014-Nov-27 07:26 UTC. Time now 2014-Nov-27 11:53 UTC.
Position N 15°55' W 061°45'.

Length 102 m; draft 4.6 m.

Type: Tanker. MMSI: 234910000.

Date/timePositionNaut miles runAvg speedWind from/ knotsBaromVisibWave heightAir tempDewpointWater temp
2014-Nov-27 07:26N 15°55' W 061°45'3310.7
2014-Nov-27 04:19N 16°21' W 062°06'1110.0
2014-Nov-27 03:11N 16°30' W 062°13'610.2
2014-Nov-27 02:33N 16°36' W 062°17'2410.6
2014-Nov-27 00:19N 16°55' W 062°31'58 5.9
2014-Nov-26 14:30N 17°43' W 063°05'1110.6
2014-Nov-26 13:29N 17°54' W 063°05'7 6.1
2014-Nov-26 12:20N 18°01' W 063°05'0 0.0
2014-Nov-26 11:23N 18°01' W 063°05'0 0.0
2014-Nov-26 10:24N 18°01' W 063°05'0 0.0
2014-Nov-26 09:23N 18°01' W 063°05'0 0.0
2014-Nov-26 08:23N 18°01' W 063°05'0 0.0
2014-Nov-26 06:29N 18°01' W 063°05'0 0.0
2014-Nov-26 05:29N 18°01' W 063°05'0 0.0
2014-Nov-26 02:29N 18°01' W 063°05'0 0.0
2014-Nov-26 01:05N 18°01' W 063°05'0 0.0
2014-Nov-26 00:18N 18°01' W 063°05'0 0.0
2014-Nov-25 23:23N 18°01' W 063°05'0 0.0
2014-Nov-25 20:05N 18°01' W 063°05'0 0.0
2014-Nov-25 19:23N 18°01' W 063°05'0 0.0
2014-Nov-25 18:29N 18°01' W 063°05'0 0.0
2014-Nov-25 17:14N 18°01' W 063°05'0 0.0
2014-Nov-25 15:17N 18°01' W 063°05'0 0.0
2014-Nov-25 14:17N 18°01' W 063°05'0 0.0
2014-Nov-25 13:17N 18°01' W 063°05'0 0.0
2014-Nov-25 12:30N 18°01' W 063°05'0 0.0
2014-Nov-25 11:17N 18°01' W 063°05'0 0.2
2014-Nov-25 10:27N 18°01' W 063°05'7 6.1
2014-Nov-25 09:17N 17°54' W 063°07'2 2.9
2014-Nov-25 08:31N 17°56' W 063°08'7 5.1
2014-Nov-25 07:09N 17°55' W 063°00'  
Track history (hours):
 
Tides and Currents Weather Stations Pressure Air Temp Water Temp Dewpoint Dewpoint Depression Visibility Wind Speed Wind Dir Waves Ship Positions

Lesley Pg

Last reported at 2014-Nov-27 07:26 UTC. Time now 2014-Nov-27 11:53 UTC.
Position N 15°55' W 061°45'.

Length 102 m; draft 4.6 m.

Type: Tanker. MMSI: 234910000.

Date/timePositionNaut miles runAvg speedWind from/ knotsBaromVisibWave heightAir tempDewpointWater temp
2014-Nov-27 07:26N 15°55' W 061°45'3310.7
2014-Nov-27 04:19N 16°21' W 062°06'1110.0
2014-Nov-27 03:11N 16°30' W 062°13'610.2
2014-Nov-27 02:33N 16°36' W 062°17'2410.6
2014-Nov-27 00:19N 16°55' W 062°31'58 5.9
2014-Nov-26 14:30N 17°43' W 063°05'1110.6
2014-Nov-26 13:29N 17°54' W 063°05'7 6.1
2014-Nov-26 12:20N 18°01' W 063°05'0 0.0
2014-Nov-26 11:23N 18°01' W 063°05'0 0.0
2014-Nov-26 10:24N 18°01' W 063°05'0 0.0
2014-Nov-26 09:23N 18°01' W 063°05'0 0.0
2014-Nov-26 08:23N 18°01' W 063°05'0 0.0
2014-Nov-26 06:29N 18°01' W 063°05'0 0.0
2014-Nov-26 05:29N 18°01' W 063°05'0 0.0
2014-Nov-26 02:29N 18°01' W 063°05'0 0.0
2014-Nov-26 01:05N 18°01' W 063°05'0 0.0
2014-Nov-26 00:18N 18°01' W 063°05'0 0.0
2014-Nov-25 23:23N 18°01' W 063°05'0 0.0
2014-Nov-25 20:05N 18°01' W 063°05'0 0.0
2014-Nov-25 19:23N 18°01' W 063°05'0 0.0
2014-Nov-25 18:29N 18°01' W 063°05'0 0.0
2014-Nov-25 17:14N 18°01' W 063°05'0 0.0
2014-Nov-25 15:17N 18°01' W 063°05'0 0.0
2014-Nov-25 14:17N 18°01' W 063°05'0 0.0
2014-Nov-25 13:17N 18°01' W 063°05'0 0.0
2014-Nov-25 12:30N 18°01' W 063°05'0 0.0
2014-Nov-25 11:17N 18°01' W 063°05'0 0.2
2014-Nov-25 10:27N 18°01' W 063°05'7 6.1
2014-Nov-25 09:17N 17°54' W 063°07'2 2.9
2014-Nov-25 08:31N 17°56' W 063°08'7 5.1
2014-Nov-25 07:09N 17°55' W 063°00'  

Dump ship's entire track history